logo
Search for airport 
image banner adimage banner adimage banner ad
image banner ad

MMLHA - La Herradura

Located in Juárez, Mexico

ICAO - , IATA -

Data provided by Airmate  

General information

Coordinates: N27°35'27" W100°36'16"
Elevation is 875 feet MSL.
Magnetic variation is 4° East
View others Airports in Coahuila

Operational data

Special qualification required
Current time UTC:
Current local time:
Weather at : - ( 0 km )
METAR: KNKX 180702Z 08005KT 9SM CLR 08/08 A2999 RMK AO2 T00830078
View NOTAMs / SUP AIP / TFR affecting this airport [VIEW]
Communications frequencies: [VIEW]

Runways:

RWY identifierQFULength (ft)Width (ft)SurfaceLDA (ft)
32327°4754103DIRT
14147°4754103DIRT

Airport contact information

Address: Juárez Mexico

Satellite view of MMLHA